createdAt,value
2022-10-18T00:01:01.638Z,12.63
2022-10-18T00:06:17.610Z,11.82
2022-10-18T00:08:45.621Z,10.82
2022-10-18T00:11:13.323Z,10.80
2022-10-18T00:13:41.370Z,11.88
2022-10-18T00:16:12.947Z,10.38
2022-10-18T00:18:41.513Z,11.25
2022-10-18T00:21:12.893Z,11.30
2022-10-18T00:23:43.142Z,11.40
2022-10-18T00:26:13.320Z,10.63
2022-10-18T00:28:42.095Z,8.98
2022-10-18T00:31:11.745Z,8.52
2022-10-18T00:33:40.759Z,10.40
2022-10-18T00:36:08.742Z,9.65
2022-10-18T00:38:37.600Z,9.60
2022-10-18T00:41:08.926Z,10.50
2022-10-18T00:43:53.036Z,9.63
2022-10-18T00:46:21.305Z,9.00
2022-10-18T00:48:49.944Z,7.40
2022-10-18T00:51:19.970Z,7.10
2022-10-18T00:53:49.019Z,6.07
2022-10-18T00:56:18.695Z,6.93
2022-10-18T00:58:48.650Z,5.85
2022-10-18T01:01:16.806Z,5.82
2022-10-18T01:03:44.828Z,5.95
2022-10-18T01:06:12.651Z,6.20
2022-10-18T01:08:59.160Z,6.35
2022-10-18T01:11:55.240Z,6.45
2022-10-18T01:14:35.141Z,5.30
2022-10-18T01:17:09.820Z,5.88
2022-10-18T01:20:04.480Z,5.55
2022-10-18T01:22:37.537Z,5.43
2022-10-18T01:25:21.282Z,5.95
2022-10-18T01:27:58.171Z,6.10
2022-10-18T01:30:36.881Z,6.30
2022-10-18T01:33:11.823Z,6.68
2022-10-18T01:35:43.794Z,7.18
2022-10-18T01:38:17.103Z,6.65
2022-10-18T01:40:48.658Z,7.10
2022-10-18T01:43:18.400Z,7.35
2022-10-18T01:45:48.374Z,5.78
2022-10-18T01:48:18.251Z,6.60
2022-10-18T01:50:46.305Z,7.30
2022-10-18T01:53:38.190Z,6.20
2022-10-18T01:56:19.257Z,6.93
2022-10-18T01:58:56.193Z,6.63
2022-10-18T02:01:34.450Z,7.25
2022-10-18T02:04:12.100Z,6.53
2022-10-18T02:06:46.147Z,8.32
2022-10-18T02:09:20.571Z,8.05
2022-10-18T02:11:52.242Z,6.20
2022-10-18T02:14:21.380Z,8.10
2022-10-18T02:16:54.510Z,8.52
2022-10-18T02:19:27.031Z,8.70
2022-10-18T02:21:58.203Z,13.25
2022-10-18T02:24:31.369Z,17.48
2022-10-18T02:26:59.446Z,15.88
2022-10-18T02:29:27.624Z,16.95
2022-10-18T02:32:03.449Z,15.45
2022-10-18T02:34:37.509Z,14.52
2022-10-18T02:37:06.093Z,15.35
2022-10-18T02:39:36.720Z,13.65
2022-10-18T02:42:06.739Z,13.27
2022-10-18T02:44:34.646Z,12.77
2022-10-18T02:47:05.141Z,12.05
2022-10-18T02:49:32.847Z,12.15
2022-10-18T02:52:00.821Z,14.43
2022-10-18T02:54:28.714Z,14.55
2022-10-18T02:56:56.615Z,13.80
2022-10-18T02:59:24.404Z,13.43
2022-10-18T03:01:52.408Z,12.48
2022-10-18T03:04:21.791Z,13.10
2022-10-18T03:06:49.877Z,12.98
2022-10-18T03:09:17.749Z,13.02
2022-10-18T03:11:45.606Z,12.82
2022-10-18T03:14:13.438Z,13.02
2022-10-18T03:16:41.481Z,12.52
2022-10-18T03:19:09.305Z,13.23
2022-10-18T03:21:38.486Z,12.90
2022-10-18T03:24:07.374Z,12.48
2022-10-18T03:26:35.242Z,13.15
2022-10-18T03:29:03.084Z,13.57
2022-10-18T03:34:04.156Z,13.35
2022-10-18T03:36:33.746Z,12.65
2022-10-18T03:39:02.929Z,12.25
2022-10-18T03:41:30.912Z,12.23
2022-10-18T03:43:58.696Z,12.63
2022-10-18T03:46:26.957Z,12.45
2022-10-18T03:48:54.646Z,12.30
2022-10-18T03:51:22.627Z,11.45
2022-10-18T03:53:50.453Z,11.15
2022-10-18T03:56:19.682Z,10.88
2022-10-18T03:58:47.481Z,11.70
2022-10-18T04:01:15.383Z,11.63
2022-10-18T04:03:43.087Z,11.05
2022-10-18T04:06:11.233Z,11.25
2022-10-18T04:08:38.979Z,10.40
2022-10-18T04:11:09.753Z,11.40
2022-10-18T04:13:39.101Z,10.88
2022-10-18T04:16:07.297Z,11.50
2022-10-18T04:18:35.097Z,11.38
2022-10-18T04:21:03.082Z,12.32
2022-10-18T04:23:32.809Z,11.40
2022-10-18T04:26:04.557Z,11.30
2022-10-18T04:28:32.285Z,11.57
2022-10-18T04:31:01.817Z,12.23
2022-10-18T04:33:29.650Z,12.50
2022-10-18T04:35:57.524Z,13.73
2022-10-18T04:38:25.284Z,12.10
2022-10-18T04:40:53.302Z,11.05
2022-10-18T04:43:21.128Z,12.20
2022-10-18T04:45:51.046Z,12.13
2022-10-18T04:48:21.141Z,11.77
2022-10-18T04:50:49.727Z,12.18
2022-10-18T04:53:18.775Z,12.02
2022-10-18T04:55:48.841Z,11.75
2022-10-18T04:58:16.670Z,12.65
2022-10-18T05:00:44.784Z,11.75
2022-10-18T05:03:14.170Z,10.35
2022-10-18T05:06:03.132Z,10.93
2022-10-18T05:08:32.725Z,11.35
2022-10-18T05:11:01.075Z,10.95
2022-10-18T05:13:28.886Z,13.13
2022-10-18T05:15:59.305Z,11.05
2022-10-18T05:18:27.329Z,11.57
2022-10-18T05:20:56.651Z,11.05
2022-10-18T05:23:25.265Z,11.65
2022-10-18T05:25:53.141Z,10.90
2022-10-18T05:28:38.564Z,12.65
2022-10-18T05:31:09.533Z,12.65
2022-10-18T05:33:38.070Z,12.75
2022-10-18T05:36:08.074Z,13.07
2022-10-18T05:41:08.768Z,15.75
2022-10-18T05:43:36.689Z,17.83
2022-10-18T05:46:06.470Z,16.95
2022-10-18T05:48:35.967Z,16.63
2022-10-18T05:51:03.905Z,13.85
2022-10-18T05:53:37.584Z,11.25
2022-10-18T05:56:07.070Z,12.73
2022-10-18T05:58:35.179Z,11.65
2022-10-18T06:01:03.986Z,11.23
2022-10-18T06:03:32.415Z,11.75
2022-10-18T06:06:01.371Z,10.60
2022-10-18T06:08:29.144Z,11.13
2022-10-18T06:10:58.413Z,11.18
2022-10-18T06:13:26.253Z,11.50
2022-10-18T06:15:56.890Z,11.85
2022-10-18T06:18:24.682Z,10.63
2022-10-18T06:20:57.954Z,10.60
2022-10-18T06:23:25.885Z,11.45
2022-10-18T06:25:53.951Z,11.50
2022-10-18T06:28:23.013Z,11.18
2022-10-18T06:30:50.887Z,9.68
2022-10-18T06:33:18.885Z,9.88
2022-10-18T06:35:55.412Z,9.52
2022-10-18T06:38:23.356Z,10.18
2022-10-18T06:40:51.522Z,9.27
2022-10-18T06:43:21.478Z,10.05
2022-10-18T06:45:51.460Z,9.15
2022-10-18T06:50:56.743Z,10.15
2022-10-18T06:53:24.831Z,10.45
2022-10-18T06:55:53.008Z,9.93
2022-10-18T06:58:20.841Z,8.85
2022-10-18T07:00:48.700Z,14.52
2022-10-18T07:03:17.720Z,14.43
2022-10-18T07:05:45.735Z,14.32
2022-10-18T07:08:13.560Z,15.48
2022-10-18T07:10:41.518Z,15.88
2022-10-18T07:16:02.274Z,15.15
2022-10-18T07:18:31.598Z,15.05
2022-10-18T07:21:02.392Z,14.20
2022-10-18T07:23:30.168Z,13.10
2022-10-18T07:25:58.193Z,14.82
2022-10-18T07:28:26.440Z,15.38
2022-10-18T07:30:54.488Z,15.02
2022-10-18T07:33:23.165Z,13.68
2022-10-18T07:35:52.415Z,14.38
2022-10-18T07:38:20.346Z,14.88
2022-10-18T07:40:48.364Z,14.07
2022-10-18T07:43:16.090Z,14.05
2022-10-18T07:45:52.798Z,13.98
2022-10-18T07:48:20.653Z,13.90
2022-10-18T07:50:48.737Z,14.52
2022-10-18T07:53:17.852Z,13.85
2022-10-18T07:55:46.258Z,14.45
2022-10-18T07:58:13.958Z,14.35
2022-10-18T08:00:41.839Z,14.38
2022-10-18T08:03:09.725Z,15.27
2022-10-18T08:05:37.611Z,15.25
2022-10-18T08:08:07.971Z,15.05
2022-10-18T08:10:37.730Z,13.80
2022-10-18T08:13:05.413Z,14.25
2022-10-18T08:15:33.505Z,14.07
2022-10-18T08:18:01.605Z,14.15
2022-10-18T08:20:31.369Z,13.25
2022-10-18T08:23:00.665Z,13.55
2022-10-18T08:25:29.596Z,13.45
2022-10-18T08:27:58.906Z,14.52
2022-10-18T08:30:26.798Z,13.27
2022-10-18T08:32:54.599Z,13.35
2022-10-18T08:35:22.751Z,13.18
2022-10-18T08:37:51.197Z,15.05
2022-10-18T08:40:20.264Z,14.90
2022-10-18T08:43:08.080Z,14.80
2022-10-18T08:45:42.994Z,15.30
2022-10-18T08:48:21.790Z,14.52
2022-10-18T08:50:52.137Z,13.80
2022-10-18T08:53:28.610Z,15.63
2022-10-18T08:56:03.666Z,14.48
2022-10-18T08:58:34.298Z,14.23
2022-10-18T09:01:13.896Z,14.45
2022-10-18T09:04:01.984Z,14.55
2022-10-18T09:06:36.038Z,14.10
2022-10-18T09:09:23.624Z,13.95
2022-10-18T09:12:02.201Z,12.60
2022-10-18T09:14:49.849Z,13.20
2022-10-18T09:17:29.034Z,12.32
2022-10-18T09:20:17.574Z,12.02
2022-10-18T09:22:53.540Z,12.25
2022-10-18T09:25:23.622Z,11.13
2022-10-18T09:27:57.270Z,11.65
2022-10-18T09:30:40.610Z,11.15
2022-10-18T09:33:31.698Z,11.88
2022-10-18T09:36:02.794Z,12.10
2022-10-18T09:38:33.360Z,10.02
2022-10-18T09:41:05.501Z,10.75
2022-10-18T09:43:48.198Z,10.45
2022-10-18T09:46:19.338Z,10.63
2022-10-18T09:48:52.290Z,10.45
2022-10-18T09:51:22.748Z,10.68
2022-10-18T09:54:03.412Z,10.38
2022-10-18T09:56:37.861Z,10.38
2022-10-18T09:59:29.762Z,10.45
2022-10-18T10:01:58.912Z,10.35
2022-10-18T10:04:27.009Z,9.32
2022-10-18T10:06:56.781Z,10.18
2022-10-18T10:09:29.353Z,10.45
2022-10-18T10:11:58.163Z,9.38
2022-10-18T10:14:27.747Z,9.60
2022-10-18T10:16:57.705Z,9.70
2022-10-18T10:19:33.205Z,10.05
2022-10-18T10:22:05.849Z,10.20
2022-10-18T10:24:40.813Z,9.77
2022-10-18T10:27:18.073Z,9.52
2022-10-18T10:29:53.825Z,10.05
2022-10-18T10:32:23.482Z,10.23
2022-10-18T10:34:53.433Z,8.93
2022-10-18T10:37:32.949Z,8.68
2022-10-18T10:40:18.168Z,8.63
2022-10-18T10:43:08.897Z,7.97
2022-10-18T10:46:02.862Z,7.72
2022-10-18T10:48:33.918Z,7.93
2022-10-18T10:51:06.981Z,7.70
2022-10-18T10:53:50.037Z,7.85
2022-10-18T10:56:24.350Z,7.68
2022-10-18T10:58:53.353Z,7.38
2022-10-18T11:01:28.405Z,7.60
2022-10-18T11:03:58.727Z,7.80
2022-10-18T11:06:36.810Z,7.35
2022-10-18T11:09:12.729Z,7.97
2022-10-18T11:11:46.826Z,7.75
2022-10-18T11:14:26.546Z,7.38
2022-10-18T11:17:07.733Z,8.13
2022-10-18T11:19:43.674Z,7.28
2022-10-18T11:22:19.805Z,6.60
2022-10-18T11:24:47.911Z,7.30
2022-10-18T11:27:23.908Z,6.38
2022-10-18T11:30:26.210Z,7.80
2022-10-18T11:33:02.770Z,7.90
2022-10-18T11:35:40.457Z,7.80
2022-10-18T11:38:23.600Z,7.38
2022-10-18T11:41:07.557Z,8.02
2022-10-18T11:44:01.733Z,8.73
2022-10-18T11:46:52.593Z,11.50
2022-10-18T11:49:34.606Z,21.98
2022-10-18T11:52:14.396Z,14.77
2022-10-18T11:55:07.216Z,12.25
2022-10-18T11:57:45.633Z,10.95
2022-10-18T12:00:28.602Z,10.75
2022-10-18T12:03:35.235Z,10.02
2022-10-18T12:06:06.959Z,10.43
2022-10-18T12:08:38.430Z,11.98
2022-10-18T12:11:13.712Z,12.68
2022-10-18T12:13:47.408Z,12.65
2022-10-18T12:16:16.696Z,14.07
2022-10-18T12:21:29.985Z,12.20
2022-10-18T12:24:02.139Z,13.65
2022-10-18T12:26:33.109Z,11.80
2022-10-18T12:29:14.102Z,10.55
2022-10-18T12:31:46.245Z,10.95
2022-10-18T12:37:17.033Z,10.93
2022-10-18T12:42:44.158Z,11.63
2022-10-18T12:45:26.407Z,9.85
2022-10-18T12:47:55.075Z,10.23
2022-10-18T12:50:31.537Z,9.05
2022-10-18T12:53:06.157Z,9.68
2022-10-18T12:55:37.651Z,9.73
2022-10-18T13:01:01.887Z,8.43
2022-10-18T13:03:40.077Z,8.70
2022-10-18T13:06:08.544Z,9.15
2022-10-18T13:08:42.738Z,8.77
2022-10-18T13:11:30.213Z,8.05
2022-10-18T13:14:29.250Z,8.73
2022-10-18T13:17:04.393Z,7.95
2022-10-18T13:19:39.945Z,8.23
2022-10-18T13:22:29.658Z,7.10
2022-10-18T13:25:04.217Z,8.52
2022-10-18T13:27:45.606Z,8.88
2022-10-18T13:33:06.392Z,8.38
2022-10-18T13:35:59.861Z,8.38
2022-10-18T13:38:37.288Z,8.13
2022-10-18T13:41:08.333Z,7.93
2022-10-18T13:43:56.897Z,7.93
2022-10-18T13:46:51.298Z,7.38
2022-10-18T13:49:32.809Z,8.32
2022-10-18T13:52:09.923Z,8.32
2022-10-18T13:55:05.603Z,8.32
2022-10-18T13:57:49.053Z,8.45
2022-10-18T14:00:33.725Z,7.03
2022-10-18T14:03:44.026Z,7.45
2022-10-18T14:06:11.822Z,7.75
2022-10-18T14:08:45.621Z,7.15
2022-10-18T14:11:25.312Z,6.85
2022-10-18T14:13:56.877Z,7.72
2022-10-18T14:16:31.877Z,7.72
2022-10-18T14:19:09.542Z,8.13
2022-10-18T14:21:42.957Z,7.68
2022-10-18T14:24:19.922Z,8.00
2022-10-18T14:26:48.366Z,9.50
2022-10-18T14:29:19.996Z,10.98
2022-10-18T14:31:54.565Z,11.05
2022-10-18T14:34:23.145Z,10.68
2022-10-18T14:36:52.742Z,9.23
2022-10-18T14:39:23.205Z,10.18
2022-10-18T14:41:52.829Z,9.68
2022-10-18T14:44:22.956Z,9.68
2022-10-18T14:46:52.232Z,8.95
2022-10-18T14:49:21.435Z,10.05
2022-10-18T14:51:53.799Z,10.45
2022-10-18T14:54:29.146Z,10.52
2022-10-18T14:57:00.389Z,10.35
2022-10-18T14:59:30.808Z,12.80
2022-10-18T15:02:01.182Z,12.02
2022-10-18T15:04:32.865Z,12.23
2022-10-18T15:07:05.050Z,17.38
2022-10-18T15:09:35.850Z,16.85
2022-10-18T15:12:06.010Z,16.08
2022-10-18T15:14:35.445Z,14.48
2022-10-18T15:17:08.386Z,14.35
2022-10-18T15:19:39.256Z,13.55
2022-10-18T15:25:15.731Z,14.07
2022-10-18T15:27:46.172Z,14.95
2022-10-18T15:30:19.260Z,14.93
2022-10-18T15:32:52.770Z,14.38
2022-10-18T15:35:26.417Z,13.18
2022-10-18T15:37:57.884Z,11.65
2022-10-18T15:40:35.257Z,12.60
2022-10-18T15:43:06.599Z,14.35
2022-10-18T15:45:38.859Z,12.98
2022-10-18T15:48:21.509Z,12.68
2022-10-18T15:50:51.239Z,10.35
2022-10-18T15:53:46.091Z,9.68
2022-10-18T15:56:33.712Z,9.88
2022-10-18T15:59:04.520Z,10.18
2022-10-18T16:01:43.476Z,9.50
2022-10-18T16:04:19.472Z,9.25
2022-10-18T16:06:47.577Z,8.45
2022-10-18T16:09:20.153Z,8.30
2022-10-18T16:11:54.267Z,8.25
2022-10-18T16:14:24.238Z,8.57
2022-10-18T16:16:56.676Z,24.00
2022-10-18T16:19:24.930Z,48.40
2022-10-18T16:21:54.737Z,14.35
2022-10-18T16:24:24.322Z,9.77
2022-10-18T16:26:53.101Z,8.32
2022-10-18T16:29:25.869Z,8.60
2022-10-18T16:31:57.830Z,9.75
2022-10-18T16:34:26.976Z,12.27
2022-10-18T16:36:55.845Z,15.02
2022-10-18T16:39:25.426Z,14.70
2022-10-18T16:41:53.475Z,16.70
2022-10-18T16:44:21.316Z,17.50
2022-10-18T16:46:52.387Z,17.42
2022-10-18T16:49:25.425Z,16.80
2022-10-18T16:51:54.484Z,19.17
2022-10-18T16:54:22.782Z,17.77
2022-10-18T16:56:52.491Z,23.05
2022-10-18T16:59:24.598Z,25.20
2022-10-18T17:01:53.370Z,20.55
2022-10-18T17:04:21.112Z,19.95
2022-10-18T17:06:49.093Z,18.45
2022-10-18T17:09:17.478Z,14.90
2022-10-18T17:11:45.491Z,14.50
2022-10-18T17:14:14.564Z,15.52
2022-10-18T17:16:45.431Z,17.10
2022-10-18T17:19:16.024Z,16.83
2022-10-18T17:21:44.366Z,11.65
2022-10-18T17:24:12.154Z,12.43
2022-10-18T17:26:40.027Z,10.93
2022-10-18T17:29:09.101Z,12.02
2022-10-18T17:31:38.347Z,11.55
2022-10-18T17:34:06.265Z,12.80
2022-10-18T17:36:34.929Z,11.90
2022-10-18T17:39:02.782Z,11.05
2022-10-18T17:41:31.321Z,11.27
2022-10-18T17:43:59.606Z,11.32
2022-10-18T17:46:27.864Z,11.77
2022-10-18T17:48:56.979Z,11.48
2022-10-18T17:51:25.274Z,11.85
2022-10-18T17:53:52.945Z,15.00
2022-10-18T17:56:20.856Z,14.30
2022-10-18T17:58:51.738Z,15.13
2022-10-18T18:01:22.004Z,16.80
2022-10-18T18:03:50.424Z,18.98
2022-10-18T18:06:21.541Z,19.35
2022-10-18T18:08:50.700Z,19.98
2022-10-18T18:11:19.468Z,18.58
2022-10-18T18:13:47.422Z,18.65
2022-10-18T18:16:17.763Z,17.23
2022-10-18T18:18:46.756Z,16.90
2022-10-18T18:21:14.813Z,17.23
2022-10-18T18:23:44.373Z,16.50
2022-10-18T18:26:12.508Z,16.13
2022-10-18T18:28:40.442Z,15.73
2022-10-18T18:31:09.614Z,15.48
2022-10-18T18:33:38.264Z,15.77
2022-10-18T18:36:07.285Z,14.25
2022-10-18T18:38:36.518Z,15.07
2022-10-18T18:41:08.605Z,15.77
2022-10-18T18:43:37.212Z,16.08
2022-10-18T18:46:06.066Z,15.82
2022-10-18T18:48:34.775Z,16.05
2022-10-18T18:51:03.295Z,17.73
2022-10-18T18:53:31.673Z,18.35
2022-10-18T18:56:04.131Z,18.35
2022-10-18T18:58:35.559Z,17.67
2022-10-18T19:01:08.496Z,19.63
2022-10-18T19:03:38.291Z,18.38
2022-10-18T19:06:07.567Z,17.60
2022-10-18T19:08:36.454Z,18.33
2022-10-18T19:11:08.183Z,17.60
2022-10-18T19:13:38.346Z,17.52
2022-10-18T19:16:23.136Z,17.42
2022-10-18T19:18:52.926Z,15.40
2022-10-18T19:21:21.970Z,14.55
2022-10-18T19:23:50.283Z,16.58
2022-10-18T19:26:29.609Z,15.77
2022-10-18T19:29:05.329Z,15.77
2022-10-18T19:31:34.890Z,14.27
2022-10-18T19:34:03.978Z,15.02
2022-10-18T19:36:32.187Z,14.77
2022-10-18T19:39:00.120Z,13.82
2022-10-18T19:41:29.170Z,14.85
2022-10-18T19:43:57.387Z,14.90
2022-10-18T19:46:26.901Z,13.40
2022-10-18T19:48:54.874Z,14.57
2022-10-18T19:51:27.074Z,16.23
2022-10-18T19:53:56.525Z,14.70
2022-10-18T19:56:25.630Z,15.93
2022-10-18T19:58:53.957Z,15.50
2022-10-18T20:01:22.691Z,14.68
2022-10-18T20:03:52.053Z,15.73
2022-10-18T20:06:20.670Z,16.23
2022-10-18T20:08:49.149Z,16.88
2022-10-18T20:11:20.429Z,16.27
2022-10-18T20:13:48.199Z,17.05
2022-10-18T20:16:18.199Z,17.67
2022-10-18T20:18:46.473Z,18.20
2022-10-18T20:21:17.970Z,20.25
2022-10-18T20:23:45.767Z,20.13
2022-10-18T20:26:19.647Z,20.95
2022-10-18T20:28:56.115Z,21.33
2022-10-18T20:31:26.247Z,24.88
2022-10-18T20:33:56.012Z,23.75
2022-10-18T20:36:26.065Z,24.67
2022-10-18T20:38:54.824Z,26.10
2022-10-18T20:41:24.833Z,28.52
2022-10-18T20:43:53.548Z,29.70
2022-10-18T20:46:22.232Z,29.08
2022-10-18T20:48:50.429Z,31.13
2022-10-18T20:51:18.864Z,33.92
2022-10-18T20:53:48.274Z,33.35
2022-10-18T20:56:20.108Z,36.70
2022-10-18T20:58:49.458Z,39.10
2022-10-18T21:01:19.538Z,41.55
2022-10-18T21:03:49.017Z,42.58
2022-10-18T21:06:18.881Z,37.97
2022-10-18T21:08:52.749Z,41.13
2022-10-18T21:11:20.832Z,41.53
2022-10-18T21:13:51.417Z,40.60
2022-10-18T21:16:19.404Z,39.83
2022-10-18T21:18:47.472Z,39.90
2022-10-18T21:21:17.643Z,38.75
2022-10-18T21:23:46.034Z,38.08
2022-10-18T21:26:17.249Z,36.88
2022-10-18T21:28:44.998Z,38.47
2022-10-18T21:31:15.842Z,31.98
2022-10-18T21:33:44.582Z,33.08
2022-10-18T21:36:13.248Z,30.42
2022-10-18T21:38:44.151Z,31.73
2022-10-18T21:41:13.986Z,32.70
2022-10-18T21:43:45.150Z,34.70
2022-10-18T21:46:14.641Z,36.70
2022-10-18T21:48:45.090Z,36.50
2022-10-18T21:51:14.881Z,36.45
2022-10-18T21:53:43.704Z,31.60
2022-10-18T21:56:13.725Z,32.13
2022-10-18T21:58:43.871Z,32.17
2022-10-18T22:01:14.054Z,27.02
2022-10-18T22:03:42.454Z,26.77
2022-10-18T22:06:14.625Z,26.35
2022-10-18T22:11:12.494Z,25.50
2022-10-18T22:13:40.826Z,23.38
2022-10-18T22:16:14.247Z,26.85
2022-10-18T22:18:42.317Z,14.60
2022-10-18T22:21:12.433Z,15.57
2022-10-18T22:23:41.856Z,21.30
2022-10-18T22:26:13.133Z,24.45
2022-10-18T22:28:42.629Z,28.50
2022-10-18T22:31:16.950Z,25.80
2022-10-18T22:33:45.274Z,26.27
2022-10-18T22:36:13.817Z,25.23
2022-10-18T22:38:41.542Z,26.33
2022-10-18T22:41:11.691Z,22.92
2022-10-18T22:43:40.020Z,23.15
2022-10-18T22:46:10.138Z,24.15
2022-10-18T22:48:39.849Z,20.38
2022-10-18T22:51:08.119Z,21.77
2022-10-18T22:53:36.877Z,17.77
2022-10-18T22:56:06.172Z,19.52
2022-10-18T22:58:34.066Z,15.93
2022-10-18T23:01:03.090Z,16.02
2022-10-18T23:03:31.000Z,17.02
2022-10-18T23:06:00.507Z,16.15
2022-10-18T23:08:28.878Z,15.45
2022-10-18T23:10:59.673Z,15.10
2022-10-18T23:13:28.454Z,15.07
2022-10-18T23:16:04.459Z,15.63
2022-10-18T23:18:33.731Z,16.17
2022-10-18T23:21:04.816Z,14.32
2022-10-18T23:23:35.380Z,15.60
2022-10-18T23:26:05.190Z,15.10
2022-10-18T23:28:35.510Z,15.65
2022-10-18T23:31:08.795Z,14.70
2022-10-18T23:33:37.046Z,17.13
2022-10-18T23:36:08.349Z,15.73
2022-10-18T23:38:37.081Z,16.85
2022-10-18T23:41:05.411Z,16.42
2022-10-18T23:43:33.218Z,15.48
2022-10-18T23:46:01.603Z,15.95
2022-10-18T23:48:29.592Z,15.55
2022-10-18T23:50:57.746Z,15.93
2022-10-18T23:53:26.943Z,15.48
2022-10-18T23:55:56.132Z,13.95
2022-10-18T23:58:24.483Z,14.00
